createdAt,value
2022-11-30T00:02:20.309Z,8.60
2022-11-30T00:04:52.865Z,8.57
2022-11-30T00:07:22.804Z,8.53
2022-11-30T00:09:52.613Z,8.51
2022-11-30T00:12:22.589Z,8.47
2022-11-30T00:14:52.309Z,8.43
2022-11-30T00:17:22.056Z,8.38
2022-11-30T00:19:54.403Z,8.36
2022-11-30T00:22:24.209Z,8.30
2022-11-30T00:24:53.947Z,8.28
2022-11-30T00:27:23.800Z,8.23
2022-11-30T00:29:53.660Z,8.22
2022-11-30T00:32:23.590Z,8.19
2022-11-30T00:34:56.508Z,8.17
2022-11-30T00:37:26.378Z,8.15
2022-11-30T00:39:56.149Z,8.13
2022-11-30T00:42:25.973Z,8.13
2022-11-30T00:44:55.837Z,8.14
2022-11-30T00:47:25.725Z,8.11
2022-11-30T00:49:58.265Z,8.11
2022-11-30T00:52:28.155Z,8.10
2022-11-30T00:54:58.144Z,8.12
2022-11-30T00:57:28.003Z,8.12
2022-11-30T00:59:57.862Z,8.14
2022-11-30T01:02:27.764Z,8.15
2022-11-30T01:05:00.251Z,8.15
2022-11-30T01:07:30.263Z,8.18
2022-11-30T01:10:00.119Z,8.19
2022-11-30T01:12:29.937Z,8.21
2022-11-30T01:14:59.686Z,8.22
2022-11-30T01:17:29.544Z,8.23
2022-11-30T01:20:04.666Z,8.24
2022-11-30T01:22:34.582Z,8.26
2022-11-30T01:25:04.470Z,8.27
2022-11-30T01:27:34.303Z,8.28
2022-11-30T01:30:04.033Z,8.30
2022-11-30T01:32:33.955Z,8.31
2022-11-30T01:35:09.612Z,8.33
2022-11-30T01:37:39.581Z,8.33
2022-11-30T01:40:10.811Z,8.33
2022-11-30T01:42:40.701Z,8.33
2022-11-30T01:45:15.884Z,8.36
2022-11-30T01:47:50.634Z,8.36
2022-11-30T01:50:26.625Z,8.36
2022-11-30T01:52:59.452Z,8.37
2022-11-30T01:55:32.846Z,8.38
2022-11-30T01:58:06.724Z,8.38
2022-11-30T02:00:36.611Z,8.40
2022-11-30T02:03:11.408Z,8.42
2022-11-30T02:05:44.577Z,8.43
2022-11-30T02:08:14.656Z,8.43
2022-11-30T02:10:58.187Z,8.45
2022-11-30T02:13:47.772Z,8.44
2022-11-30T02:16:30.273Z,8.44
2022-11-30T02:19:29.640Z,8.45
2022-11-30T02:22:06.301Z,8.47
2022-11-30T02:24:52.735Z,8.47
2022-11-30T02:27:34.630Z,8.51
2022-11-30T02:30:11.485Z,8.52
2022-11-30T02:32:48.563Z,8.54
2022-11-30T02:35:22.070Z,8.56
2022-11-30T02:37:54.765Z,8.54
2022-11-30T02:40:25.286Z,8.55
2022-11-30T02:42:57.421Z,8.57
2022-11-30T02:45:34.631Z,8.57
2022-11-30T02:48:11.018Z,8.58
2022-11-30T02:50:44.939Z,8.57
2022-11-30T02:53:14.715Z,8.57
2022-11-30T02:55:44.401Z,8.59
2022-11-30T02:58:14.590Z,8.60
2022-11-30T03:00:47.314Z,8.60
2022-11-30T03:03:17.028Z,8.60
2022-11-30T03:05:46.852Z,8.60
2022-11-30T03:08:16.746Z,8.61
2022-11-30T03:10:46.622Z,8.59
2022-11-30T03:13:16.347Z,8.60
2022-11-30T03:15:49.181Z,8.60
2022-11-30T03:18:18.968Z,8.59
2022-11-30T03:20:48.654Z,8.60
2022-11-30T03:23:18.457Z,8.61
2022-11-30T03:25:48.179Z,8.60
2022-11-30T03:28:17.915Z,8.59
2022-11-30T03:30:54.086Z,8.60
2022-11-30T03:33:23.854Z,8.61
2022-11-30T03:36:02.087Z,8.61
2022-11-30T03:38:32.446Z,8.62
2022-11-30T03:41:03.525Z,8.64
2022-11-30T03:43:33.478Z,8.62
2022-11-30T03:46:06.470Z,8.62
2022-11-30T03:48:36.579Z,8.62
2022-11-30T03:51:06.924Z,8.62
2022-11-30T03:53:36.889Z,8.61
2022-11-30T03:56:15.627Z,8.60
2022-11-30T03:58:54.944Z,8.59
2022-11-30T04:04:40.042Z,8.51
2022-11-30T04:07:09.751Z,8.47
2022-11-30T04:09:39.659Z,8.41
2022-11-30T04:12:09.880Z,8.37
2022-11-30T04:14:39.662Z,8.34
2022-11-30T04:17:09.499Z,8.33
2022-11-30T04:19:41.820Z,8.33
2022-11-30T04:22:11.553Z,8.33
2022-11-30T04:24:41.289Z,8.33
2022-11-30T04:27:11.121Z,8.32
2022-11-30T04:29:40.854Z,8.34
2022-11-30T04:32:10.668Z,8.33
2022-11-30T04:34:43.106Z,8.31
2022-11-30T04:37:12.809Z,8.31
2022-11-30T04:39:42.508Z,8.30
2022-11-30T04:42:12.238Z,8.31
2022-11-30T04:44:41.943Z,8.31
2022-11-30T04:47:11.648Z,8.31
2022-11-30T04:49:43.993Z,8.28
2022-11-30T04:52:13.712Z,8.24
2022-11-30T04:54:43.438Z,8.24
2022-11-30T04:57:13.182Z,8.25
2022-11-30T04:59:42.892Z,8.26
2022-11-30T05:02:12.860Z,8.22
2022-11-30T05:04:46.427Z,8.22
2022-11-30T05:07:17.048Z,8.22
2022-11-30T05:09:47.242Z,8.23
2022-11-30T05:12:26.314Z,8.24
2022-11-30T05:14:56.179Z,8.19
2022-11-30T05:17:29.484Z,8.19
2022-11-30T05:20:01.909Z,8.20
2022-11-30T05:22:31.705Z,8.16
2022-11-30T05:25:01.579Z,8.13
2022-11-30T05:27:31.631Z,8.14
2022-11-30T05:30:01.624Z,8.14
2022-11-30T05:32:31.528Z,8.14
2022-11-30T05:35:04.034Z,8.15
2022-11-30T05:37:34.847Z,8.12
2022-11-30T05:40:04.699Z,8.13
2022-11-30T05:42:34.491Z,8.13
2022-11-30T05:45:04.285Z,8.13
2022-11-30T05:47:34.277Z,8.12
2022-11-30T05:50:07.323Z,8.12
2022-11-30T05:52:41.127Z,8.15
2022-11-30T05:55:11.528Z,8.14
2022-11-30T05:57:42.285Z,8.13
2022-11-30T06:00:13.289Z,8.09
2022-11-30T06:02:43.269Z,8.07
2022-11-30T06:05:16.082Z,8.06
2022-11-30T06:07:46.020Z,7.99
2022-11-30T06:10:16.112Z,7.93
2022-11-30T06:12:45.867Z,7.91
2022-11-30T06:15:15.970Z,7.89
2022-11-30T06:17:52.750Z,7.86
2022-11-30T06:20:25.290Z,7.80
2022-11-30T06:22:55.051Z,7.80
2022-11-30T06:25:24.848Z,7.81
2022-11-30T06:27:54.985Z,7.83
2022-11-30T06:30:25.098Z,7.87
2022-11-30T06:32:55.342Z,7.88
2022-11-30T06:35:27.780Z,7.86
2022-11-30T06:37:57.650Z,7.90
2022-11-30T06:40:27.429Z,7.95
2022-11-30T06:42:57.210Z,8.00
2022-11-30T06:45:27.013Z,8.02
2022-11-30T06:47:58.496Z,8.03
2022-11-30T06:50:30.932Z,8.02
2022-11-30T06:53:00.731Z,8.06
2022-11-30T06:55:33.050Z,8.05
2022-11-30T06:58:08.531Z,8.02
2022-11-30T07:00:39.414Z,8.02
2022-11-30T07:03:09.624Z,7.96
2022-11-30T07:05:45.389Z,7.93
2022-11-30T07:08:15.635Z,7.89
2022-11-30T07:10:46.492Z,7.84
2022-11-30T07:13:17.640Z,7.80
2022-11-30T07:15:48.444Z,7.77
2022-11-30T07:18:18.164Z,7.72
2022-11-30T07:20:50.547Z,7.66
2022-11-30T07:23:32.651Z,7.63
2022-11-30T07:26:10.885Z,7.56
2022-11-30T07:28:43.192Z,7.55
2022-11-30T07:31:20.536Z,7.54
2022-11-30T07:33:51.390Z,7.53
2022-11-30T07:36:26.164Z,7.49
2022-11-30T07:38:55.930Z,7.46
2022-11-30T07:41:26.187Z,7.46
2022-11-30T07:43:55.918Z,7.43
2022-11-30T07:46:25.753Z,7.42
2022-11-30T07:48:55.697Z,7.41
2022-11-30T07:51:28.377Z,7.42
2022-11-30T07:53:59.528Z,7.45
2022-11-30T07:56:30.360Z,7.44
2022-11-30T07:59:02.663Z,7.45
2022-11-30T08:01:34.237Z,7.42
2022-11-30T08:04:04.448Z,7.41
2022-11-30T08:06:36.981Z,7.40
2022-11-30T08:09:07.354Z,7.36
2022-11-30T08:11:39.044Z,7.35
2022-11-30T08:14:09.005Z,7.32
2022-11-30T08:16:40.611Z,7.32
2022-11-30T08:19:10.357Z,7.31
2022-11-30T08:21:42.686Z,7.31
2022-11-30T08:24:14.860Z,7.31
2022-11-30T08:26:45.002Z,7.32
2022-11-30T08:29:14.829Z,7.32
2022-11-30T08:31:44.589Z,7.33
2022-11-30T08:34:16.214Z,7.37
2022-11-30T08:36:51.765Z,7.40
2022-11-30T08:39:21.990Z,7.41
2022-11-30T08:41:53.129Z,7.42
2022-11-30T08:44:22.838Z,7.41
2022-11-30T08:46:53.232Z,7.43
2022-11-30T08:49:24.781Z,7.43
2022-11-30T08:54:50.641Z,7.40
2022-11-30T08:57:22.758Z,7.37
2022-11-30T08:59:52.472Z,7.36
2022-11-30T09:02:22.488Z,7.37
2022-11-30T09:04:53.898Z,7.38
2022-11-30T09:07:26.338Z,7.35
2022-11-30T09:09:56.101Z,7.37
2022-11-30T09:12:25.832Z,7.40
2022-11-30T09:14:58.240Z,7.41
2022-11-30T09:17:31.289Z,7.36
2022-11-30T09:20:01.169Z,7.36
2022-11-30T09:22:33.512Z,7.35
2022-11-30T09:25:03.221Z,7.33
2022-11-30T09:27:35.164Z,7.34
2022-11-30T09:30:05.109Z,7.32
2022-11-30T09:32:34.866Z,7.32
2022-11-30T09:35:06.641Z,7.35
2022-11-30T09:37:42.372Z,7.37
2022-11-30T09:40:15.952Z,7.39
2022-11-30T09:42:55.179Z,7.42
2022-11-30T09:45:31.410Z,7.42
2022-11-30T09:48:26.346Z,7.45
2022-11-30T09:50:57.820Z,7.45
2022-11-30T09:53:41.227Z,7.49
2022-11-30T09:56:22.943Z,7.53
2022-11-30T09:58:58.069Z,7.49
2022-11-30T10:01:32.010Z,7.46
2022-11-30T10:04:02.705Z,7.41
2022-11-30T10:06:42.534Z,7.42
2022-11-30T10:09:57.578Z,7.42
2022-11-30T10:12:42.420Z,7.37
2022-11-30T10:15:25.616Z,7.33
2022-11-30T10:17:57.828Z,7.33
2022-11-30T10:20:47.859Z,7.32
2022-11-30T10:23:33.005Z,7.29
2022-11-30T10:26:11.788Z,7.23
2022-11-30T10:28:52.003Z,7.22
2022-11-30T10:31:24.396Z,7.23
2022-11-30T10:33:55.919Z,7.26
2022-11-30T10:36:32.580Z,7.30
2022-11-30T10:39:05.684Z,7.32
2022-11-30T10:41:46.236Z,7.31
2022-11-30T10:44:23.337Z,7.30
2022-11-30T10:47:01.136Z,7.33
2022-11-30T10:49:33.457Z,7.40
2022-11-30T10:52:07.357Z,7.41
2022-11-30T10:54:38.997Z,7.39
2022-11-30T10:57:14.579Z,7.35
2022-11-30T10:59:47.867Z,7.33
2022-11-30T11:02:37.719Z,7.35
2022-11-30T11:05:23.221Z,7.34
2022-11-30T11:08:05.932Z,7.35
2022-11-30T11:10:38.644Z,7.40
2022-11-30T11:13:19.244Z,7.45
2022-11-30T11:16:00.897Z,7.41
2022-11-30T11:18:32.462Z,7.41
2022-11-30T11:21:08.141Z,7.43
2022-11-30T11:23:40.735Z,7.45
2022-11-30T11:26:21.768Z,7.46
2022-11-30T11:28:56.250Z,7.47
2022-11-30T11:31:38.194Z,7.45
2022-11-30T11:34:10.098Z,7.43
2022-11-30T11:36:39.790Z,7.40
2022-11-30T11:39:28.413Z,7.40
2022-11-30T11:41:58.894Z,7.37
2022-11-30T11:44:31.952Z,7.39
2022-11-30T11:47:04.202Z,7.40
2022-11-30T11:49:37.541Z,7.41
2022-11-30T11:52:09.432Z,7.45
2022-11-30T11:54:45.083Z,7.47
2022-11-30T11:57:18.441Z,7.49
2022-11-30T11:59:57.092Z,7.50
2022-11-30T12:02:35.016Z,7.50
2022-11-30T12:05:09.795Z,7.48
2022-11-30T12:07:45.191Z,7.47
2022-11-30T12:13:22.688Z,7.51
2022-11-30T12:16:07.351Z,7.51
2022-11-30T12:18:46.399Z,7.51
2022-11-30T12:21:18.342Z,7.46
2022-11-30T12:24:03.452Z,7.49
2022-11-30T12:26:40.847Z,7.54
2022-11-30T12:29:23.699Z,7.56
2022-11-30T12:32:07.518Z,7.52
2022-11-30T12:34:51.737Z,7.55
2022-11-30T12:37:32.208Z,7.59
2022-11-30T12:40:20.084Z,7.65
2022-11-30T12:42:58.629Z,7.68
2022-11-30T12:45:34.437Z,7.69
2022-11-30T12:48:17.429Z,7.68
2022-11-30T12:50:59.740Z,7.63
2022-11-30T12:53:35.739Z,7.59
2022-11-30T12:56:18.889Z,7.56
2022-11-30T12:58:56.775Z,7.57
2022-11-30T13:01:49.679Z,7.59
2022-11-30T13:04:28.564Z,7.62
2022-11-30T13:07:03.251Z,7.58
2022-11-30T13:09:40.219Z,7.58
2022-11-30T13:12:15.324Z,7.56
2022-11-30T13:14:46.648Z,7.54
2022-11-30T13:17:20.451Z,7.48
2022-11-30T13:20:04.273Z,7.48
2022-11-30T13:22:45.775Z,7.49
2022-11-30T13:25:59.317Z,7.50
2022-11-30T13:28:20.956Z,7.52
2022-11-30T13:30:56.587Z,7.46
2022-11-30T13:33:50.640Z,7.44
2022-11-30T13:36:35.693Z,7.43
2022-11-30T13:39:27.364Z,7.42
2022-11-30T13:42:31.745Z,7.43
2022-11-30T13:45:03.742Z,7.45
2022-11-30T13:47:35.949Z,7.46
2022-11-30T13:50:11.693Z,7.46
2022-11-30T13:53:13.970Z,7.45
2022-11-30T13:55:59.484Z,7.41
2022-11-30T13:58:30.357Z,7.37
2022-11-30T14:01:23.975Z,7.35
2022-11-30T14:04:26.097Z,7.34
2022-11-30T14:06:59.485Z,7.32
2022-11-30T14:10:02.046Z,7.35
2022-11-30T14:12:59.605Z,7.35
2022-11-30T14:15:57.271Z,7.30
2022-11-30T14:18:34.645Z,7.29
2022-11-30T14:21:08.402Z,7.32
2022-11-30T14:23:49.664Z,7.35
2022-11-30T14:26:24.167Z,7.35
2022-11-30T14:29:16.875Z,7.34
2022-11-30T14:31:56.124Z,7.34
2022-11-30T14:34:30.395Z,7.33
2022-11-30T14:37:04.028Z,7.34
2022-11-30T14:39:37.666Z,7.30
2022-11-30T14:42:08.641Z,7.29
2022-11-30T14:44:43.593Z,7.28
2022-11-30T14:47:17.952Z,7.30
2022-11-30T14:49:52.472Z,7.31
2022-11-30T14:52:38.620Z,7.32
2022-11-30T14:55:20.481Z,7.30
2022-11-30T14:57:59.453Z,7.31
2022-11-30T15:00:40.632Z,7.34
2022-11-30T15:03:21.980Z,7.36
2022-11-30T15:05:54.945Z,7.35
2022-11-30T15:08:26.838Z,7.36
2022-11-30T15:10:58.657Z,7.35
2022-11-30T15:13:30.488Z,7.36
2022-11-30T15:16:03.002Z,7.37
2022-11-30T15:18:32.821Z,7.36
2022-11-30T15:21:06.383Z,7.35
2022-11-30T15:23:36.998Z,7.32
2022-11-30T15:26:14.864Z,7.33
2022-11-30T15:28:47.768Z,7.35
2022-11-30T15:31:20.755Z,7.37
2022-11-30T15:33:52.759Z,7.39
2022-11-30T15:36:33.508Z,7.41
2022-11-30T15:39:06.908Z,7.44
2022-11-30T15:41:37.956Z,7.47
2022-11-30T15:44:08.299Z,7.48
2022-11-30T15:46:46.629Z,7.49
2022-11-30T15:49:21.116Z,7.51
2022-11-30T15:52:04.325Z,7.51
2022-11-30T15:54:52.920Z,7.54
2022-11-30T15:57:23.214Z,7.55
2022-11-30T16:00:10.371Z,7.56
2022-11-30T16:02:42.882Z,7.55
2022-11-30T16:05:27.878Z,7.56
2022-11-30T16:08:01.386Z,7.59
2022-11-30T16:10:35.747Z,7.63
2022-11-30T16:13:05.988Z,7.64
2022-11-30T16:15:37.522Z,7.64
2022-11-30T16:18:18.297Z,7.62
2022-11-30T16:20:50.324Z,7.57
2022-11-30T16:23:21.127Z,7.56
2022-11-30T16:25:52.740Z,7.57
2022-11-30T16:28:24.449Z,7.57
2022-11-30T16:30:54.527Z,7.58
2022-11-30T16:33:27.800Z,7.56
2022-11-30T16:35:59.584Z,7.53
2022-11-30T16:38:30.478Z,7.48
2022-11-30T16:41:16.865Z,7.49
2022-11-30T16:43:47.313Z,7.50
2022-11-30T16:46:19.435Z,7.52
2022-11-30T16:48:52.528Z,7.49
2022-11-30T16:51:25.422Z,7.47
2022-11-30T16:53:55.141Z,7.48
2022-11-30T16:56:24.908Z,7.49
2022-11-30T16:58:55.673Z,7.48
2022-11-30T17:01:34.841Z,7.49
2022-11-30T17:04:17.950Z,7.46
2022-11-30T17:06:50.723Z,7.41
2022-11-30T17:09:23.320Z,7.40
2022-11-30T17:11:54.185Z,7.35
2022-11-30T17:14:24.018Z,7.34
2022-11-30T17:16:53.795Z,7.34
2022-11-30T17:19:26.244Z,7.36
2022-11-30T17:21:57.060Z,7.36
2022-11-30T17:24:26.751Z,7.36
2022-11-30T17:26:56.440Z,7.36
2022-11-30T17:29:26.109Z,7.34
2022-11-30T17:31:55.800Z,7.35
2022-11-30T17:34:28.125Z,7.37
2022-11-30T17:36:57.866Z,7.39
2022-11-30T17:39:27.566Z,7.41
2022-11-30T17:41:57.248Z,7.38
2022-11-30T17:44:26.933Z,7.39
2022-11-30T17:46:56.639Z,7.40
2022-11-30T17:49:28.988Z,7.42
2022-11-30T17:51:58.690Z,7.42
2022-11-30T17:54:28.361Z,7.40
2022-11-30T17:56:58.104Z,7.37
2022-11-30T17:59:27.773Z,7.32
2022-11-30T18:01:57.565Z,7.30
2022-11-30T18:04:30.007Z,7.30
2022-11-30T18:06:59.662Z,7.31
2022-11-30T18:09:29.340Z,7.32
2022-11-30T18:11:58.999Z,7.34
2022-11-30T18:14:28.926Z,7.37
2022-11-30T18:16:58.632Z,7.43
2022-11-30T18:19:31.023Z,7.47
2022-11-30T18:22:00.716Z,7.48
2022-11-30T18:24:30.430Z,7.46
2022-11-30T18:27:00.135Z,7.45
2022-11-30T18:29:30.213Z,7.44
2022-11-30T18:31:59.860Z,7.43
2022-11-30T18:34:32.221Z,7.48
2022-11-30T18:37:01.940Z,7.48
2022-11-30T18:39:31.654Z,7.47
2022-11-30T18:42:01.360Z,7.46
2022-11-30T18:44:31.065Z,7.41
2022-11-30T18:47:00.761Z,7.39
2022-11-30T18:49:33.057Z,7.41
2022-11-30T18:52:02.740Z,7.42
2022-11-30T18:54:32.463Z,7.43
2022-11-30T18:57:02.274Z,7.44
2022-11-30T18:59:32.008Z,7.46
2022-11-30T19:02:01.767Z,7.50
2022-11-30T19:04:34.275Z,7.53
2022-11-30T19:07:03.952Z,7.55
2022-11-30T19:09:33.604Z,7.55
2022-11-30T19:12:03.287Z,7.54
2022-11-30T19:14:33.263Z,7.52
2022-11-30T19:17:03.078Z,7.50
2022-11-30T19:19:35.496Z,7.51
2022-11-30T19:22:05.192Z,7.48
2022-11-30T19:24:36.186Z,7.48
2022-11-30T19:27:05.885Z,7.45
2022-11-30T19:29:35.571Z,7.42
2022-11-30T19:32:05.235Z,7.41
2022-11-30T19:34:37.568Z,7.41
2022-11-30T19:37:07.253Z,7.39
2022-11-30T19:39:37.013Z,7.39
2022-11-30T19:42:07.274Z,7.40
2022-11-30T19:44:36.952Z,7.39
2022-11-30T19:47:06.639Z,7.40
2022-11-30T19:49:38.956Z,7.42
2022-11-30T19:52:08.774Z,7.46
2022-11-30T19:54:38.473Z,7.44
2022-11-30T19:57:08.251Z,7.43
2022-11-30T19:59:37.968Z,7.41
2022-11-30T20:02:08.517Z,7.42
2022-11-30T20:04:40.921Z,7.46
2022-11-30T20:07:10.596Z,7.46
2022-11-30T20:09:40.296Z,7.43
2022-11-30T20:12:10.135Z,7.41
2022-11-30T20:14:39.792Z,7.39
2022-11-30T20:17:10.114Z,7.39
2022-11-30T20:19:42.683Z,7.42
2022-11-30T20:22:12.459Z,7.45
2022-11-30T20:24:42.164Z,7.48
2022-11-30T20:27:11.847Z,7.50
2022-11-30T20:29:41.573Z,7.52
2022-11-30T20:32:11.269Z,7.52
2022-11-30T20:34:44.852Z,7.54
2022-11-30T20:37:15.745Z,7.53
2022-11-30T20:39:46.257Z,7.53
2022-11-30T20:42:16.283Z,7.53
2022-11-30T20:44:46.096Z,7.53
2022-11-30T20:47:15.915Z,7.53
2022-11-30T20:49:48.271Z,7.56
2022-11-30T20:52:18.023Z,7.56
2022-11-30T20:54:47.855Z,7.58
2022-11-30T20:57:17.742Z,7.60
2022-11-30T20:59:47.456Z,7.57
2022-11-30T21:02:17.369Z,7.59
2022-11-30T21:04:50.050Z,7.54
2022-11-30T21:07:20.032Z,7.53
2022-11-30T21:09:49.852Z,7.50
2022-11-30T21:12:19.540Z,7.52
2022-11-30T21:14:49.705Z,7.54
2022-11-30T21:17:19.725Z,7.53
2022-11-30T21:19:52.000Z,7.55
2022-11-30T21:22:21.814Z,7.58
2022-11-30T21:24:52.476Z,7.56
2022-11-30T21:27:22.197Z,7.59
2022-11-30T21:29:51.873Z,7.59
2022-11-30T21:32:21.528Z,7.62
2022-11-30T21:34:53.830Z,7.62
2022-11-30T21:37:23.507Z,7.62
2022-11-30T21:39:53.355Z,7.64
2022-11-30T21:42:23.074Z,7.65
2022-11-30T21:44:52.732Z,7.64
2022-11-30T21:47:22.417Z,7.63
2022-11-30T21:49:54.680Z,7.62
2022-11-30T21:52:24.364Z,7.59
2022-11-30T21:54:54.048Z,7.61
2022-11-30T21:57:23.844Z,7.58
2022-11-30T21:59:53.629Z,7.56
2022-11-30T22:02:24.722Z,7.55
2022-11-30T22:04:57.251Z,7.57
2022-11-30T22:07:32.065Z,7.60
2022-11-30T22:10:01.893Z,7.61
2022-11-30T22:12:31.583Z,7.58
2022-11-30T22:15:01.367Z,7.56
2022-11-30T22:17:31.284Z,7.51
2022-11-30T22:20:03.902Z,7.47
2022-11-30T22:22:33.687Z,7.43
2022-11-30T22:25:03.371Z,7.40
2022-11-30T22:27:33.214Z,7.37
2022-11-30T22:30:02.925Z,7.31
2022-11-30T22:32:32.692Z,7.27
2022-11-30T22:35:04.995Z,7.27
2022-11-30T22:37:34.675Z,7.26
2022-11-30T22:40:04.381Z,7.25
2022-11-30T22:42:34.044Z,7.25
2022-11-30T22:45:03.706Z,7.27
2022-11-30T22:47:33.395Z,7.30
2022-11-30T22:50:05.739Z,7.33
2022-11-30T22:53:01.387Z,7.35
2022-11-30T22:55:25.158Z,7.32
2022-11-30T22:57:54.981Z,7.33
2022-11-30T23:00:24.703Z,7.31
2022-11-30T23:02:54.548Z,7.26
2022-11-30T23:05:26.888Z,7.25
2022-11-30T23:07:56.960Z,7.20
2022-11-30T23:10:26.692Z,7.19
2022-11-30T23:13:00.217Z,7.23
2022-11-30T23:15:30.116Z,7.22
2022-11-30T23:17:59.815Z,7.24
2022-11-30T23:20:32.636Z,7.28
2022-11-30T23:23:02.318Z,7.29
2022-11-30T23:25:32.004Z,7.29
2022-11-30T23:28:01.701Z,7.32
2022-11-30T23:30:31.400Z,7.31
2022-11-30T23:33:01.135Z,7.32
2022-11-30T23:35:33.431Z,7.29
2022-11-30T23:38:03.169Z,7.28
2022-11-30T23:40:32.965Z,7.28
2022-11-30T23:43:02.767Z,7.26
2022-11-30T23:45:32.818Z,7.26
2022-11-30T23:48:02.517Z,7.26
2022-11-30T23:50:34.784Z,7.28
2022-11-30T23:53:04.513Z,7.28
2022-11-30T23:55:34.179Z,7.30
2022-11-30T23:58:03.870Z,7.31
